createdAt,value
2019-04-25T00:01:03.424Z,8.82
2019-04-25T00:03:36.799Z,8.90
2019-04-25T00:06:09.748Z,8.85
2019-04-25T00:08:43.065Z,8.87
2019-04-25T00:11:14.724Z,8.83
2019-04-25T00:13:46.036Z,8.84
2019-04-25T00:16:19.150Z,8.69
2019-04-25T00:18:51.706Z,8.47
2019-04-25T00:21:31.790Z,8.03
2019-04-25T00:24:08.629Z,7.98
2019-04-25T00:26:45.165Z,8.09
2019-04-25T00:29:17.745Z,7.86
2019-04-25T00:31:49.329Z,7.61
2019-04-25T00:34:21.850Z,7.45
2019-04-25T00:36:53.323Z,7.39
2019-04-25T00:39:26.180Z,7.44
2019-04-25T00:41:58.023Z,7.44
2019-04-25T00:44:29.388Z,7.32
2019-04-25T00:47:02.268Z,7.34
2019-04-25T00:49:34.093Z,7.27
2019-04-25T00:52:05.439Z,7.26
2019-04-25T00:54:36.741Z,7.12
2019-04-25T00:57:08.128Z,7.24
2019-04-25T00:59:45.689Z,7.39
2019-04-25T01:02:27.905Z,7.46
2019-04-25T01:04:59.341Z,7.52
2019-04-25T01:07:32.438Z,7.44
2019-04-25T01:10:05.266Z,7.44
2019-04-25T01:12:36.864Z,7.37
2019-04-25T01:15:11.598Z,7.27
2019-04-25T01:17:45.297Z,7.24
2019-04-25T01:20:17.911Z,7.06
2019-04-25T01:22:49.351Z,6.91
2019-04-25T01:25:23.377Z,6.77
2019-04-25T01:27:55.005Z,7.04
2019-04-25T01:30:27.977Z,7.38
2019-04-25T01:32:59.427Z,7.51
2019-04-25T01:35:36.758Z,7.57
2019-04-25T01:38:18.208Z,7.61
2019-04-25T01:40:57.375Z,7.26
2019-04-25T01:44:00.074Z,7.06
2019-04-25T01:46:32.308Z,6.89
2019-04-25T01:49:04.355Z,6.93
2019-04-25T01:51:36.312Z,7.09
2019-04-25T01:54:07.680Z,7.16
2019-04-25T01:56:39.334Z,7.11
2019-04-25T01:59:11.265Z,7.10
2019-04-25T02:01:44.036Z,7.02
2019-04-25T02:04:15.623Z,6.93
2019-04-25T02:06:47.035Z,6.96
2019-04-25T02:09:20.293Z,7.08
2019-04-25T02:12:04.807Z,7.15
2019-04-25T02:14:36.326Z,7.14
2019-04-25T02:17:07.731Z,7.07
2019-04-25T02:19:39.204Z,7.06
2019-04-25T02:22:10.924Z,7.09
2019-04-25T02:24:55.843Z,7.18
2019-04-25T02:27:28.451Z,7.29
2019-04-25T02:30:01.030Z,7.30
2019-04-25T02:32:34.464Z,7.24
2019-04-25T02:35:09.359Z,7.26
2019-04-25T02:37:40.755Z,7.22
2019-04-25T02:40:14.141Z,7.10
2019-04-25T02:42:45.764Z,6.97
2019-04-25T02:45:48.273Z,7.07
2019-04-25T02:48:38.916Z,7.12
2019-04-25T02:51:26.670Z,7.20
2019-04-25T02:53:59.502Z,7.45
2019-04-25T02:56:37.596Z,7.47
2019-04-25T02:59:08.450Z,7.39
2019-04-25T03:01:38.874Z,7.30
2019-04-25T03:04:11.355Z,7.20
2019-04-25T03:06:45.246Z,7.08
2019-04-25T03:09:16.856Z,7.01
2019-04-25T03:11:48.614Z,6.87
2019-04-25T03:14:19.938Z,6.68
2019-04-25T03:16:54.339Z,6.63
2019-04-25T03:19:34.223Z,6.65
2019-04-25T03:22:11.063Z,6.75
2019-04-25T03:24:40.180Z,6.84
2019-04-25T03:27:12.034Z,6.87
2019-04-25T03:29:55.163Z,6.90
2019-04-25T03:32:28.455Z,6.82
2019-04-25T03:35:00.511Z,6.78
2019-04-25T03:37:33.068Z,6.63
2019-04-25T03:40:06.621Z,6.39
2019-04-25T03:42:39.618Z,6.07
2019-04-25T03:45:13.761Z,6.09
2019-04-25T03:47:45.759Z,6.22
2019-04-25T03:50:17.344Z,6.30
2019-04-25T03:52:48.760Z,6.44
2019-04-25T03:55:20.297Z,6.63
2019-04-25T03:57:51.627Z,6.66
2019-04-25T04:00:24.120Z,6.70
2019-04-25T04:02:55.546Z,6.70
2019-04-25T04:05:27.297Z,6.61
2019-04-25T04:07:58.980Z,6.58
2019-04-25T04:10:30.191Z,6.56
2019-04-25T04:13:01.582Z,6.59
2019-04-25T04:15:33.591Z,6.76
2019-04-25T04:18:17.257Z,6.78
2019-04-25T04:21:16.185Z,6.83
2019-04-25T04:24:04.371Z,6.78
2019-04-25T04:26:35.846Z,6.65
2019-04-25T04:29:07.816Z,6.56
2019-04-25T04:31:39.345Z,6.59
2019-04-25T04:34:10.678Z,6.74
2019-04-25T04:36:43.689Z,6.80
2019-04-25T04:39:16.810Z,6.83
2019-04-25T04:41:48.035Z,6.95
2019-04-25T04:44:19.350Z,6.94
2019-04-25T04:46:50.718Z,6.97
2019-04-25T04:49:23.504Z,7.04
2019-04-25T04:51:56.685Z,7.02
2019-04-25T04:54:28.012Z,7.19
2019-04-25T04:56:59.448Z,7.46
2019-04-25T04:59:31.061Z,7.35
2019-04-25T05:02:24.750Z,7.43
2019-04-25T05:05:24.811Z,7.59
2019-04-25T05:08:18.767Z,7.65
2019-04-25T05:10:50.251Z,7.85
2019-04-25T05:13:22.063Z,7.90
2019-04-25T05:15:53.403Z,8.03
2019-04-25T05:18:34.625Z,8.14
2019-04-25T05:20:57.990Z,8.33
2019-04-25T05:23:29.194Z,8.56
2019-04-25T05:26:00.606Z,8.67
2019-04-25T05:28:33.306Z,8.86
2019-04-25T05:31:19.294Z,9.17
2019-04-25T05:33:50.807Z,9.45
2019-04-25T05:36:23.864Z,9.66
2019-04-25T05:38:55.563Z,9.95
2019-04-25T05:41:38.925Z,10.26
2019-04-25T05:44:10.265Z,10.58
2019-04-25T05:46:41.643Z,10.89
2019-04-25T05:49:13.858Z,11.17
2019-04-25T05:51:45.276Z,11.48
2019-04-25T05:54:16.589Z,11.73
2019-04-25T05:56:47.807Z,12.04
2019-04-25T05:59:19.523Z,12.23
2019-04-25T06:01:50.894Z,12.33
2019-04-25T06:04:24.643Z,12.73
2019-04-25T06:06:55.713Z,13.17
2019-04-25T06:09:48.833Z,13.48
2019-04-25T06:12:28.034Z,13.95
2019-04-25T06:14:59.419Z,14.26
2019-04-25T06:17:38.881Z,14.65
2019-04-25T06:20:13.448Z,14.96
2019-04-25T06:22:58.636Z,15.42
2019-04-25T06:25:36.318Z,15.28
2019-04-25T06:28:05.836Z,15.67
2019-04-25T06:30:37.361Z,16.08
2019-04-25T06:33:09.180Z,16.35
2019-04-25T06:35:40.613Z,16.46
2019-04-25T06:38:13.361Z,16.58
2019-04-25T06:40:44.888Z,16.62
2019-04-25T06:43:16.389Z,16.94
2019-04-25T06:45:55.703Z,17.32
2019-04-25T06:48:45.970Z,17.83
2019-04-25T06:51:17.335Z,17.85
2019-04-25T06:53:48.693Z,17.86
2019-04-25T06:56:20.054Z,18.03
2019-04-25T06:58:51.340Z,18.12
2019-04-25T07:01:25.113Z,18.10
2019-04-25T07:03:55.882Z,17.99
2019-04-25T07:06:27.294Z,18.28
2019-04-25T07:08:58.655Z,18.69
2019-04-25T07:11:30.511Z,18.75
2019-04-25T07:14:01.723Z,18.44
2019-04-25T07:16:34.423Z,18.64
2019-04-25T07:19:06.653Z,18.59
2019-04-25T07:21:38.052Z,18.91
2019-04-25T07:24:09.474Z,18.77
2019-04-25T07:27:03.801Z,19.21
2019-04-25T07:29:51.827Z,19.27
2019-04-25T07:32:35.774Z,19.70
2019-04-25T07:35:07.817Z,19.81
2019-04-25T07:37:41.474Z,19.78
2019-04-25T07:40:13.901Z,20.46
2019-04-25T07:42:45.463Z,20.92
2019-04-25T07:45:18.799Z,20.96
2019-04-25T07:47:50.234Z,21.29
2019-04-25T07:50:21.883Z,21.47
2019-04-25T07:52:53.842Z,21.88
2019-04-25T07:55:25.506Z,21.72
2019-04-25T07:57:56.881Z,21.52
2019-04-25T08:00:29.656Z,21.81
2019-04-25T08:03:01.074Z,22.03
2019-04-25T08:05:35.310Z,22.28
2019-04-25T08:08:05.687Z,21.91
2019-04-25T08:10:59.576Z,22.35
2019-04-25T08:13:39.866Z,22.24
2019-04-25T08:16:14.575Z,22.23
2019-04-25T08:18:47.924Z,22.72
2019-04-25T08:21:19.622Z,23.50
2019-04-25T08:23:53.325Z,23.34
2019-04-25T08:26:25.750Z,23.62
2019-04-25T08:28:57.879Z,24.40
2019-04-25T08:31:30.367Z,24.98
2019-04-25T08:34:03.612Z,25.06
2019-04-25T08:36:37.094Z,24.36
2019-04-25T08:39:11.297Z,24.14
2019-04-25T08:41:45.358Z,24.42
2019-04-25T08:44:16.090Z,25.06
2019-04-25T08:46:48.800Z,25.07
2019-04-25T08:49:38.399Z,25.12
2019-04-25T08:52:10.436Z,25.58
2019-04-25T08:55:00.929Z,25.74
2019-04-25T08:57:51.765Z,25.14
2019-04-25T09:00:36.151Z,25.63
2019-04-25T09:03:11.407Z,25.96
2019-04-25T09:05:46.243Z,25.56
2019-04-25T09:08:18.168Z,25.75
2019-04-25T09:10:49.520Z,25.93
2019-04-25T09:13:21.039Z,25.21
2019-04-25T09:15:54.017Z,25.78
2019-04-25T09:18:25.917Z,25.14
2019-04-25T09:20:57.283Z,25.54
2019-04-25T09:23:29.736Z,25.92
2019-04-25T09:26:01.207Z,25.94
2019-04-25T09:28:35.053Z,25.71
2019-04-25T09:31:05.996Z,26.75
2019-04-25T09:33:37.626Z,26.93
2019-04-25T09:36:09.706Z,26.65
2019-04-25T09:38:41.157Z,26.90
2019-04-25T09:41:13.980Z,26.88
2019-04-25T09:43:46.884Z,27.40
2019-04-25T09:46:31.357Z,26.41
2019-04-25T09:49:08.607Z,27.19
2019-04-25T09:51:44.616Z,27.89
2019-04-25T09:54:34.021Z,28.33
2019-04-25T09:57:34.143Z,28.66
2019-04-25T10:00:09.777Z,28.91
2019-04-25T10:02:41.224Z,28.75
2019-04-25T10:05:13.964Z,28.65
2019-04-25T10:07:46.314Z,29.09
2019-04-25T10:10:18.832Z,28.57
2019-04-25T10:12:50.966Z,28.51
2019-04-25T10:15:59.599Z,29.34
2019-04-25T10:18:33.465Z,29.49
2019-04-25T10:21:08.490Z,30.17
2019-04-25T10:23:42.134Z,29.58
2019-04-25T10:26:14.447Z,29.03
2019-04-25T10:28:45.874Z,29.09
2019-04-25T10:31:17.148Z,28.77
2019-04-25T10:33:48.701Z,28.91
2019-04-25T10:36:20.891Z,28.51
2019-04-25T10:39:04.281Z,29.37
2019-04-25T10:41:25.442Z,29.71
2019-04-25T10:43:57.067Z,29.87
2019-04-25T10:46:28.612Z,29.75
2019-04-25T10:49:00.052Z,29.17
2019-04-25T10:51:31.577Z,29.09
2019-04-25T10:54:04.182Z,29.50
2019-04-25T10:56:35.810Z,29.64
2019-04-25T10:59:07.257Z,30.36
2019-04-25T11:01:38.710Z,30.37
2019-04-25T11:04:29.014Z,30.30
2019-04-25T11:07:00.762Z,30.44
2019-04-25T11:09:33.775Z,29.80
2019-04-25T11:12:08.741Z,29.38
2019-04-25T11:14:40.919Z,29.00
2019-04-25T11:17:13.192Z,29.69
2019-04-25T11:19:45.475Z,30.34
2019-04-25T11:22:16.989Z,30.01
2019-04-25T11:24:48.662Z,29.90
2019-04-25T11:27:20.574Z,29.86
2019-04-25T11:29:53.548Z,29.81
2019-04-25T11:32:28.373Z,29.66
2019-04-25T11:34:59.958Z,30.55
2019-04-25T11:37:34.296Z,30.68
2019-04-25T11:40:19.502Z,31.05
2019-04-25T11:42:51.217Z,30.55
2019-04-25T11:45:23.669Z,29.76
2019-04-25T11:47:56.164Z,30.51
2019-04-25T11:50:28.473Z,30.66
2019-04-25T11:53:00.919Z,30.23
2019-04-25T11:55:32.961Z,30.25
2019-04-25T11:58:04.516Z,31.21
2019-04-25T12:00:36.787Z,30.19
2019-04-25T12:03:08.210Z,29.84
2019-04-25T12:05:39.720Z,30.72
2019-04-25T12:08:13.469Z,31.08
2019-04-25T12:10:45.781Z,30.33
2019-04-25T12:13:20.427Z,29.60
2019-04-25T12:15:51.932Z,29.00
2019-04-25T12:18:23.650Z,28.51
2019-04-25T12:20:57.973Z,28.28
2019-04-25T12:23:30.174Z,29.14
2019-04-25T12:26:01.521Z,28.76
2019-04-25T12:28:33.889Z,28.94
2019-04-25T12:31:05.340Z,30.10
2019-04-25T12:33:37.085Z,29.96
2019-04-25T12:36:08.526Z,29.60
2019-04-25T12:38:40.546Z,29.68
2019-04-25T12:41:11.825Z,29.86
2019-04-25T12:43:48.346Z,30.20
2019-04-25T12:46:26.061Z,30.39
2019-04-25T12:48:57.725Z,30.14
2019-04-25T12:51:29.154Z,29.81
2019-04-25T12:54:00.698Z,29.09
2019-04-25T12:56:32.172Z,29.51
2019-04-25T12:59:04.592Z,30.62
2019-04-25T13:01:36.185Z,31.09
2019-04-25T13:04:07.633Z,31.36
2019-04-25T13:06:39.059Z,30.99
2019-04-25T13:09:13.274Z,30.46
2019-04-25T13:11:44.785Z,29.65
2019-04-25T13:14:16.293Z,29.24
2019-04-25T13:16:47.573Z,28.55
2019-04-25T13:19:23.965Z,28.26
2019-04-25T13:21:52.168Z,28.27
2019-04-25T13:24:23.613Z,29.25
2019-04-25T13:27:03.961Z,30.11
2019-04-25T13:29:45.361Z,31.18
2019-04-25T13:32:27.927Z,31.98
2019-04-25T13:35:00.975Z,32.02
2019-04-25T13:37:34.095Z,31.87
2019-04-25T13:40:06.373Z,31.95
2019-04-25T13:42:40.693Z,31.99
2019-04-25T13:45:14.310Z,32.60
2019-04-25T13:47:45.753Z,33.07
2019-04-25T13:50:17.919Z,32.50
2019-04-25T13:52:49.177Z,31.73
2019-04-25T13:55:21.321Z,31.65
2019-04-25T13:57:54.670Z,31.33
2019-04-25T14:00:27.791Z,30.08
2019-04-25T14:03:03.029Z,28.86
2019-04-25T14:05:35.298Z,28.34
2019-04-25T14:08:07.029Z,28.02
2019-04-25T14:10:39.089Z,27.71
2019-04-25T14:13:11.104Z,27.41
2019-04-25T14:15:47.910Z,27.60
2019-04-25T14:18:53.556Z,27.75
2019-04-25T14:21:26.125Z,27.72
2019-04-25T14:23:58.727Z,27.35
2019-04-25T14:26:31.290Z,27.06
2019-04-25T14:29:04.249Z,26.80
2019-04-25T14:31:45.460Z,26.54
2019-04-25T14:34:09.985Z,26.65
2019-04-25T14:36:41.658Z,26.67
2019-04-25T14:39:15.137Z,26.56
2019-04-25T14:41:49.785Z,26.45
2019-04-25T14:44:22.281Z,26.34
2019-04-25T14:46:55.051Z,26.03
2019-04-25T14:49:26.998Z,26.06
2019-04-25T14:51:58.574Z,25.95
2019-04-25T14:54:36.982Z,25.70
2019-04-25T14:57:16.915Z,25.81
2019-04-25T14:59:48.596Z,25.95
2019-04-25T15:02:22.638Z,26.00
2019-04-25T15:04:53.958Z,26.23
2019-04-25T15:07:25.413Z,26.52
2019-04-25T15:09:56.859Z,27.03
2019-04-25T15:12:29.350Z,27.45
2019-04-25T15:15:00.782Z,27.24
2019-04-25T15:17:43.909Z,27.69
2019-04-25T15:20:06.990Z,28.22
2019-04-25T15:22:38.961Z,29.43
2019-04-25T15:25:10.781Z,30.11
2019-04-25T15:27:42.194Z,29.19
2019-04-25T15:30:18.857Z,29.20
2019-04-25T15:32:50.391Z,28.57
2019-04-25T15:35:24.642Z,28.74
2019-04-25T15:38:05.066Z,29.14
2019-04-25T15:40:42.058Z,28.49
2019-04-25T15:43:36.410Z,28.87
2019-04-25T15:46:16.406Z,28.67
2019-04-25T15:48:48.217Z,28.62
2019-04-25T15:51:19.600Z,28.83
2019-04-25T15:53:50.924Z,28.85
2019-04-25T15:56:22.374Z,28.50
2019-04-25T15:58:54.175Z,28.63
2019-04-25T16:01:26.497Z,28.34
2019-04-25T16:03:58.211Z,27.79
2019-04-25T16:06:30.055Z,27.74
2019-04-25T16:09:01.460Z,27.45
2019-04-25T16:11:35.103Z,27.43
2019-04-25T16:14:06.665Z,27.66
2019-04-25T16:16:38.435Z,27.99
2019-04-25T16:19:10.006Z,28.36
2019-04-25T16:21:42.235Z,28.49
2019-04-25T16:24:13.733Z,27.86
2019-04-25T16:26:45.101Z,27.54
2019-04-25T16:29:16.376Z,27.22
2019-04-25T16:31:47.813Z,27.09
2019-04-25T16:34:19.150Z,26.57
2019-04-25T16:36:50.585Z,25.90
2019-04-25T16:39:24.122Z,25.69
2019-04-25T16:41:55.619Z,25.80
2019-04-25T16:44:27.641Z,25.86
2019-04-25T16:47:00.079Z,26.21
2019-04-25T16:49:32.558Z,26.10
2019-04-25T16:52:05.754Z,25.95
2019-04-25T16:54:38.080Z,25.80
2019-04-25T16:57:09.540Z,25.72
2019-04-25T16:59:40.798Z,25.58
2019-04-25T17:02:12.325Z,25.37
2019-04-25T17:04:43.899Z,25.28
2019-04-25T17:07:15.754Z,25.04
2019-04-25T17:09:47.365Z,25.07
2019-04-25T17:12:19.720Z,25.12
2019-04-25T17:15:09.962Z,25.01
2019-04-25T17:18:04.423Z,24.85
2019-04-25T17:20:40.611Z,24.76
2019-04-25T17:23:12.982Z,24.64
2019-04-25T17:25:44.395Z,24.43
2019-04-25T17:28:17.422Z,24.36
2019-04-25T17:30:52.572Z,24.18
2019-04-25T17:33:35.683Z,23.94
2019-04-25T17:36:15.556Z,23.99
2019-04-25T17:38:54.457Z,23.72
2019-04-25T17:41:26.151Z,23.55
2019-04-25T17:43:57.519Z,23.37
2019-04-25T17:46:28.736Z,23.11
2019-04-25T17:49:00.027Z,22.96
2019-04-25T17:51:32.263Z,22.73
2019-04-25T17:54:05.220Z,22.44
2019-04-25T17:56:36.649Z,22.21
2019-04-25T17:59:09.143Z,21.89
2019-04-25T18:01:40.745Z,21.72
2019-04-25T18:04:12.405Z,21.43
2019-04-25T18:06:44.384Z,21.17
2019-04-25T18:09:15.867Z,20.84
2019-04-25T18:11:47.666Z,20.54
2019-04-25T18:14:19.009Z,20.37
2019-04-25T18:16:52.413Z,20.22
2019-04-25T18:19:29.808Z,20.04
2019-04-25T18:22:12.215Z,19.88
2019-04-25T18:25:05.937Z,19.82
2019-04-25T18:27:56.185Z,19.79
2019-04-25T18:30:27.957Z,19.69
2019-04-25T18:33:11.916Z,19.61
2019-04-25T18:35:44.604Z,19.36
2019-04-25T18:38:23.459Z,19.01
2019-04-25T18:41:02.195Z,18.79
2019-04-25T18:43:47.127Z,18.58
2019-04-25T18:46:40.503Z,18.41
2019-04-25T18:49:12.392Z,18.28
2019-04-25T18:51:55.103Z,17.99
2019-04-25T18:54:30.619Z,17.91
2019-04-25T18:57:12.375Z,17.71
2019-04-25T19:00:05.979Z,17.58
2019-04-25T19:03:00.787Z,17.51
2019-04-25T19:05:57.276Z,17.44
2019-04-25T19:08:28.992Z,17.40
2019-04-25T19:11:00.823Z,17.48
2019-04-25T19:13:33.071Z,17.45
2019-04-25T19:16:04.581Z,17.47
2019-04-25T19:18:36.057Z,17.37
2019-04-25T19:21:08.279Z,17.29
2019-04-25T19:23:41.743Z,17.15
2019-04-25T19:26:14.260Z,17.05
2019-04-25T19:28:46.861Z,17.01
2019-04-25T19:31:18.371Z,16.97
2019-04-25T19:33:49.930Z,16.90
2019-04-25T19:36:21.528Z,16.81
2019-04-25T19:38:53.537Z,16.71
2019-04-25T19:41:31.326Z,16.78
2019-04-25T19:44:08.205Z,16.74
2019-04-25T19:46:44.906Z,16.77
2019-04-25T19:49:16.682Z,16.77
2019-04-25T19:51:48.051Z,16.63
2019-04-25T19:54:19.508Z,16.54
2019-04-25T19:56:51.770Z,16.52
2019-04-25T19:59:23.614Z,16.55
2019-04-25T20:01:57.073Z,16.41
2019-04-25T20:04:37.958Z,16.25
2019-04-25T20:07:21.273Z,16.18
2019-04-25T20:10:21.073Z,16.15
2019-04-25T20:12:53.529Z,16.10
2019-04-25T20:15:33.405Z,16.10
2019-04-25T20:18:05.989Z,16.32
2019-04-25T20:20:37.509Z,16.36
2019-04-25T20:23:08.825Z,16.31
2019-04-25T20:25:40.291Z,16.18
2019-04-25T20:28:11.824Z,16.03
2019-04-25T20:30:44.537Z,16.06
2019-04-25T20:33:16.988Z,16.30
2019-04-25T20:35:49.387Z,16.63
2019-04-25T20:38:20.722Z,16.44
2019-04-25T20:40:52.674Z,16.36
2019-04-25T20:43:24.307Z,16.13
2019-04-25T20:45:56.526Z,15.91
2019-04-25T20:48:28.051Z,15.42
2019-04-25T20:50:59.801Z,15.22
2019-04-25T20:53:31.479Z,15.40
2019-04-25T20:56:03.146Z,15.35
2019-04-25T20:58:53.516Z,15.41
2019-04-25T21:01:44.585Z,15.37
2019-04-25T21:04:34.834Z,14.95
2019-04-25T21:07:13.169Z,14.54
2019-04-25T21:09:44.536Z,14.33
2019-04-25T21:12:15.976Z,14.43
2019-04-25T21:15:06.623Z,14.35
2019-04-25T21:18:06.264Z,14.39
2019-04-25T21:20:37.800Z,14.36
2019-04-25T21:23:09.086Z,14.16
2019-04-25T21:25:40.457Z,14.00
2019-04-25T21:28:13.483Z,14.03
2019-04-25T21:30:44.924Z,14.09
2019-04-25T21:33:16.549Z,14.08
2019-04-25T21:35:48.099Z,14.10
2019-04-25T21:38:20.060Z,14.44
2019-04-25T21:41:10.188Z,14.44
2019-04-25T21:43:46.983Z,14.43
2019-04-25T21:46:19.703Z,14.39
2019-04-25T21:48:53.407Z,14.24
2019-04-25T21:51:34.264Z,14.14
2019-04-25T21:54:05.907Z,14.21
2019-04-25T21:56:37.615Z,14.06
2019-04-25T21:59:09.270Z,13.87
2019-04-25T22:01:41.947Z,13.85
2019-04-25T22:04:13.580Z,14.07
2019-04-25T22:06:45.452Z,14.16
2019-04-25T22:09:19.381Z,13.72
2019-04-25T22:11:51.477Z,13.32
2019-04-25T22:14:23.438Z,13.17
2019-04-25T22:16:55.478Z,13.13
2019-04-25T22:19:28.054Z,13.32
2019-04-25T22:22:00.596Z,13.40
2019-04-25T22:24:32.129Z,13.46
2019-04-25T22:27:06.174Z,13.79
2019-04-25T22:29:42.020Z,13.78
2019-04-25T22:32:27.870Z,13.45
2019-04-25T22:35:07.971Z,13.02
2019-04-25T22:37:39.510Z,12.93
2019-04-25T22:40:11.635Z,12.86
2019-04-25T22:42:43.427Z,12.78
2019-04-25T22:45:15.195Z,12.78
2019-04-25T22:47:46.905Z,12.97
2019-04-25T22:50:18.466Z,12.91
2019-04-25T22:52:50.191Z,12.93
2019-04-25T22:55:21.716Z,13.16
2019-04-25T22:57:53.014Z,13.46
2019-04-25T23:00:28.849Z,13.38
2019-04-25T23:03:05.892Z,13.77
2019-04-25T23:05:42.834Z,13.71
2019-04-25T23:08:14.550Z,13.30
2019-04-25T23:10:46.247Z,12.82
2019-04-25T23:13:19.246Z,12.47
2019-04-25T23:15:50.551Z,12.23
2019-04-25T23:18:22.394Z,12.09
2019-04-25T23:20:53.838Z,12.03
2019-04-25T23:23:25.465Z,11.97
2019-04-25T23:26:08.980Z,11.95
2019-04-25T23:28:42.592Z,11.83
2019-04-25T23:31:18.739Z,11.65
2019-04-25T23:33:51.127Z,11.62
2019-04-25T23:36:22.841Z,12.05
2019-04-25T23:38:54.364Z,12.44
2019-04-25T23:41:26.211Z,12.52
2019-04-25T23:43:57.579Z,12.67
2019-04-25T23:46:29.545Z,12.85
2019-04-25T23:49:00.944Z,12.92
2019-04-25T23:51:32.638Z,13.02
2019-04-25T23:54:05.304Z,13.13
2019-04-25T23:56:36.961Z,12.97
2019-04-25T23:59:11.489Z,13.09
